sensor_id;sensor_type;location;lat;lon;timestamp;P1;durP1;ratioP1;P2;durP2;ratioP2
10248;SDS011;5169;50.560;9.714;2023-04-29T00:01:21;26.90;;;24.60;;
10248;SDS011;5169;50.560;9.714;2023-04-29T00:03:52;24.03;;;22.07;;
10248;SDS011;5169;50.560;9.714;2023-04-29T00:06:20;26.83;;;24.57;;
10248;SDS011;5169;50.560;9.714;2023-04-29T00:08:52;26.10;;;23.93;;
10248;SDS011;5169;50.560;9.714;2023-04-29T00:11:17;31.10;;;27.93;;
10248;SDS011;5169;50.560;9.714;2023-04-29T00:13:45;26.30;;;24.07;;
10248;SDS011;5169;50.560;9.714;2023-04-29T00:16:16;29.87;;;26.93;;
10248;SDS011;5169;50.560;9.714;2023-04-29T00:18:51;31.27;;;28.23;;
10248;SDS011;5169;50.560;9.714;2023-04-29T00:21:17;29.93;;;27.03;;
10248;SDS011;5169;50.560;9.714;2023-04-29T00:23:42;31.00;;;27.93;;
10248;SDS011;5169;50.560;9.714;2023-04-29T00:26:08;26.53;;;24.10;;
10248;SDS011;5169;50.560;9.714;2023-04-29T00:28:36;28.80;;;26.10;;
10248;SDS011;5169;50.560;9.714;2023-04-29T00:31:04;29.07;;;26.40;;
10248;SDS011;5169;50.560;9.714;2023-04-29T00:33:32;27.87;;;25.33;;
10248;SDS011;5169;50.560;9.714;2023-04-29T00:36:04;28.53;;;25.63;;
10248;SDS011;5169;50.560;9.714;2023-04-29T00:38:32;27.23;;;24.87;;
10248;SDS011;5169;50.560;9.714;2023-04-29T00:41:01;24.43;;;22.40;;
10248;SDS011;5169;50.560;9.714;2023-04-29T00:43:27;28.67;;;25.90;;
10248;SDS011;5169;50.560;9.714;2023-04-29T00:45:52;29.43;;;26.67;;
10248;SDS011;5169;50.560;9.714;2023-04-29T00:48:18;29.30;;;26.60;;
10248;SDS011;5169;50.560;9.714;2023-04-29T00:50:52;31.77;;;28.60;;
10248;SDS011;5169;50.560;9.714;2023-04-29T00:53:18;27.20;;;24.93;;
10248;SDS011;5169;50.560;9.714;2023-04-29T00:55:45;24.60;;;22.33;;
10248;SDS011;5169;50.560;9.714;2023-04-29T00:58:14;30.63;;;27.67;;
10248;SDS011;5169;50.560;9.714;2023-04-29T01:00:39;28.67;;;26.00;;
10248;SDS011;5169;50.560;9.714;2023-04-29T01:03:05;29.83;;;26.90;;
10248;SDS011;5169;50.560;9.714;2023-04-29T01:05:40;29.97;;;27.17;;
10248;SDS011;5169;50.560;9.714;2023-04-29T01:11:14;29.53;;;26.50;;
10248;SDS011;5169;50.560;9.714;2023-04-29T01:13:51;35.17;;;30.67;;
10248;SDS011;5169;50.560;9.714;2023-04-29T01:16:24;32.50;;;29.03;;
10248;SDS011;5169;50.560;9.714;2023-04-29T01:18:57;37.37;;;30.50;;
10248;SDS011;5169;50.560;9.714;2023-04-29T01:21:44;40.23;;;33.23;;
10248;SDS011;5169;50.560;9.714;2023-04-29T01:24:15;30.30;;;26.73;;
10248;SDS011;5169;50.560;9.714;2023-04-29T01:26:45;28.00;;;24.97;;
10248;SDS011;5169;50.560;9.714;2023-04-29T01:29:33;23.37;;;20.57;;
10248;SDS011;5169;50.560;9.714;2023-04-29T01:32:07;39.07;;;28.70;;
10248;SDS011;5169;50.560;9.714;2023-04-29T01:37:30;30.07;;;25.23;;
10248;SDS011;5169;50.560;9.714;2023-04-29T01:40:09;21.07;;;19.37;;
10248;SDS011;5169;50.560;9.714;2023-04-29T01:43:03;24.77;;;22.67;;
10248;SDS011;5169;50.560;9.714;2023-04-29T01:45:39;27.87;;;25.37;;
10248;SDS011;5169;50.560;9.714;2023-04-29T01:48:07;27.10;;;24.70;;
10248;SDS011;5169;50.560;9.714;2023-04-29T01:50:41;28.07;;;25.37;;
10248;SDS011;5169;50.560;9.714;2023-04-29T01:53:07;33.17;;;27.87;;
10248;SDS011;5169;50.560;9.714;2023-04-29T01:55:33;25.40;;;22.93;;
10248;SDS011;5169;50.560;9.714;2023-04-29T01:57:58;30.07;;;25.77;;
10248;SDS011;5169;50.560;9.714;2023-04-29T02:00:28;27.90;;;25.17;;
10248;SDS011;5169;50.560;9.714;2023-04-29T02:02:56;26.67;;;22.37;;
10248;SDS011;5169;50.560;9.714;2023-04-29T02:05:26;26.30;;;23.83;;
10248;SDS011;5169;50.560;9.714;2023-04-29T02:07:56;23.87;;;21.93;;
10248;SDS011;5169;50.560;9.714;2023-04-29T02:10:24;23.80;;;21.83;;
10248;SDS011;5169;50.560;9.714;2023-04-29T02:12:50;24.30;;;22.40;;
10248;SDS011;5169;50.560;9.714;2023-04-29T02:15:19;19.10;;;17.67;;
10248;SDS011;5169;50.560;9.714;2023-04-29T02:17:45;23.00;;;21.23;;
10248;SDS011;5169;50.560;9.714;2023-04-29T02:20:11;18.20;;;16.87;;
10248;SDS011;5169;50.560;9.714;2023-04-29T02:22:37;24.47;;;22.40;;
10248;SDS011;5169;50.560;9.714;2023-04-29T02:25:15;23.90;;;21.90;;
10248;SDS011;5169;50.560;9.714;2023-04-29T02:27:47;28.03;;;25.57;;
10248;SDS011;5169;50.560;9.714;2023-04-29T02:30:12;27.60;;;25.27;;
10248;SDS011;5169;50.560;9.714;2023-04-29T02:32:38;26.20;;;24.13;;
10248;SDS011;5169;50.560;9.714;2023-04-29T02:35:03;25.37;;;22.97;;
10248;SDS011;5169;50.560;9.714;2023-04-29T02:37:33;26.20;;;23.93;;
10248;SDS011;5169;50.560;9.714;2023-04-29T02:40:01;24.40;;;22.30;;
10248;SDS011;5169;50.560;9.714;2023-04-29T02:42:27;30.10;;;26.97;;
10248;SDS011;5169;50.560;9.714;2023-04-29T02:44:57;30.77;;;27.90;;
10248;SDS011;5169;50.560;9.714;2023-04-29T02:47:22;30.20;;;27.23;;
10248;SDS011;5169;50.560;9.714;2023-04-29T02:49:48;31.53;;;28.57;;
10248;SDS011;5169;50.560;9.714;2023-04-29T02:52:13;33.27;;;30.00;;
10248;SDS011;5169;50.560;9.714;2023-04-29T02:54:46;29.50;;;26.73;;
10248;SDS011;5169;50.560;9.714;2023-04-29T02:57:12;31.60;;;28.50;;
10248;SDS011;5169;50.560;9.714;2023-04-29T02:59:38;29.73;;;27.07;;
10248;SDS011;5169;50.560;9.714;2023-04-29T03:02:03;30.03;;;27.20;;
10248;SDS011;5169;50.560;9.714;2023-04-29T03:04:36;28.27;;;25.57;;
10248;SDS011;5169;50.560;9.714;2023-04-29T03:07:03;25.90;;;23.73;;
10248;SDS011;5169;50.560;9.714;2023-04-29T03:09:32;26.60;;;24.23;;
10248;SDS011;5169;50.560;9.714;2023-04-29T03:11:58;27.07;;;24.77;;
10248;SDS011;5169;50.560;9.714;2023-04-29T03:14:26;23.20;;;21.23;;
10248;SDS011;5169;50.560;9.714;2023-04-29T03:16:57;26.20;;;23.90;;
10248;SDS011;5169;50.560;9.714;2023-04-29T03:19:25;26.03;;;23.80;;
10248;SDS011;5169;50.560;9.714;2023-04-29T03:21:50;22.57;;;20.50;;
10248;SDS011;5169;50.560;9.714;2023-04-29T03:24:20;24.00;;;22.10;;
10248;SDS011;5169;50.560;9.714;2023-04-29T03:26:46;24.90;;;22.73;;
10248;SDS011;5169;50.560;9.714;2023-04-29T03:29:12;28.10;;;25.57;;
10248;SDS011;5169;50.560;9.714;2023-04-29T03:31:37;23.37;;;21.23;;
10248;SDS011;5169;50.560;9.714;2023-04-29T03:34:03;28.27;;;25.63;;
10248;SDS011;5169;50.560;9.714;2023-04-29T03:36:32;28.10;;;25.60;;
10248;SDS011;5169;50.560;9.714;2023-04-29T03:39:00;29.23;;;26.43;;
10248;SDS011;5169;50.560;9.714;2023-04-29T03:41:25;27.97;;;25.30;;
10248;SDS011;5169;50.560;9.714;2023-04-29T03:43:51;28.67;;;26.07;;
10248;SDS011;5169;50.560;9.714;2023-04-29T03:46:28;27.07;;;24.60;;
10248;SDS011;5169;50.560;9.714;2023-04-29T03:48:59;27.77;;;25.27;;
10248;SDS011;5169;50.560;9.714;2023-04-29T03:51:25;27.40;;;24.93;;
10248;SDS011;5169;50.560;9.714;2023-04-29T03:53:52;29.87;;;26.87;;
10248;SDS011;5169;50.560;9.714;2023-04-29T03:56:27;26.47;;;24.10;;
10248;SDS011;5169;50.560;9.714;2023-04-29T03:58:56;27.70;;;25.30;;
10248;SDS011;5169;50.560;9.714;2023-04-29T04:01:21;25.77;;;23.57;;
10248;SDS011;5169;50.560;9.714;2023-04-29T04:03:47;27.63;;;25.23;;
10248;SDS011;5169;50.560;9.714;2023-04-29T04:06:13;24.73;;;22.57;;
10248;SDS011;5169;50.560;9.714;2023-04-29T04:08:39;22.67;;;20.40;;
10248;SDS011;5169;50.560;9.714;2023-04-29T04:11:08;27.97;;;25.53;;
10248;SDS011;5169;50.560;9.714;2023-04-29T04:13:34;27.27;;;24.90;;
10248;SDS011;5169;50.560;9.714;2023-04-29T04:16:02;21.87;;;20.00;;
10248;SDS011;5169;50.560;9.714;2023-04-29T04:18:27;22.53;;;20.63;;
10248;SDS011;5169;50.560;9.714;2023-04-29T04:21:04;26.73;;;24.20;;
10248;SDS011;5169;50.560;9.714;2023-04-29T04:23:33;28.83;;;26.03;;
10248;SDS011;5169;50.560;9.714;2023-04-29T04:25:59;28.03;;;25.50;;
10248;SDS011;5169;50.560;9.714;2023-04-29T04:28:25;30.37;;;27.63;;
10248;SDS011;5169;50.560;9.714;2023-04-29T04:30:50;28.27;;;25.73;;
10248;SDS011;5169;50.560;9.714;2023-04-29T04:33:16;31.87;;;28.70;;
10248;SDS011;5169;50.560;9.714;2023-04-29T04:35:48;26.67;;;24.27;;
10248;SDS011;5169;50.560;9.714;2023-04-29T04:38:16;26.07;;;23.73;;
10248;SDS011;5169;50.560;9.714;2023-04-29T04:40:49;26.33;;;24.07;;
10248;SDS011;5169;50.560;9.714;2023-04-29T04:43:20;27.30;;;24.87;;
10248;SDS011;5169;50.560;9.714;2023-04-29T04:45:45;31.63;;;28.33;;
10248;SDS011;5169;50.560;9.714;2023-04-29T04:48:11;31.30;;;28.13;;
10248;SDS011;5169;50.560;9.714;2023-04-29T04:50:37;31.07;;;27.87;;
10248;SDS011;5169;50.560;9.714;2023-04-29T04:53:08;31.83;;;28.50;;
10248;SDS011;5169;50.560;9.714;2023-04-29T04:55:36;26.93;;;24.17;;
10248;SDS011;5169;50.560;9.714;2023-04-29T04:58:02;28.07;;;25.30;;
10248;SDS011;5169;50.560;9.714;2023-04-29T05:00:27;28.50;;;25.83;;
10248;SDS011;5169;50.560;9.714;2023-04-29T05:02:56;22.03;;;20.03;;
10248;SDS011;5169;50.560;9.714;2023-04-29T05:05:22;23.47;;;21.37;;
10248;SDS011;5169;50.560;9.714;2023-04-29T05:07:50;28.07;;;25.30;;
10248;SDS011;5169;50.560;9.714;2023-04-29T05:10:16;24.67;;;22.20;;
10248;SDS011;5169;50.560;9.714;2023-04-29T05:12:50;23.73;;;21.60;;
10248;SDS011;5169;50.560;9.714;2023-04-29T05:15:15;23.60;;;21.27;;
10248;SDS011;5169;50.560;9.714;2023-04-29T05:17:46;24.17;;;21.97;;
10248;SDS011;5169;50.560;9.714;2023-04-29T05:20:14;19.87;;;17.90;;
10248;SDS011;5169;50.560;9.714;2023-04-29T05:22:39;29.07;;;26.33;;
10248;SDS011;5169;50.560;9.714;2023-04-29T05:25:05;29.60;;;26.70;;
10248;SDS011;5169;50.560;9.714;2023-04-29T05:27:33;23.07;;;20.93;;
10248;SDS011;5169;50.560;9.714;2023-04-29T05:29:59;24.23;;;21.87;;
10248;SDS011;5169;50.560;9.714;2023-04-29T05:32:25;25.37;;;22.97;;
10248;SDS011;5169;50.560;9.714;2023-04-29T05:34:50;24.43;;;22.27;;
10248;SDS011;5169;50.560;9.714;2023-04-29T05:37:16;24.73;;;22.47;;
10248;SDS011;5169;50.560;9.714;2023-04-29T05:39:46;24.67;;;22.37;;
10248;SDS011;5169;50.560;9.714;2023-04-29T05:42:12;24.07;;;21.93;;
10248;SDS011;5169;50.560;9.714;2023-04-29T05:44:37;25.50;;;23.07;;
10248;SDS011;5169;50.560;9.714;2023-04-29T05:47:03;26.87;;;24.43;;
10248;SDS011;5169;50.560;9.714;2023-04-29T05:49:29;25.47;;;23.10;;
10248;SDS011;5169;50.560;9.714;2023-04-29T05:51:55;25.67;;;23.00;;
10248;SDS011;5169;50.560;9.714;2023-04-29T05:54:20;26.97;;;24.43;;
10248;SDS011;5169;50.560;9.714;2023-04-29T05:56:48;27.67;;;25.03;;
10248;SDS011;5169;50.560;9.714;2023-04-29T05:59:19;27.83;;;25.10;;
10248;SDS011;5169;50.560;9.714;2023-04-29T06:01:44;28.97;;;26.00;;
10248;SDS011;5169;50.560;9.714;2023-04-29T06:04:15;89.40;;;49.00;;
10248;SDS011;5169;50.560;9.714;2023-04-29T06:06:43;78.60;;;45.77;;
10248;SDS011;5169;50.560;9.714;2023-04-29T06:09:08;87.10;;;47.93;;
10248;SDS011;5169;50.560;9.714;2023-04-29T06:11:34;90.63;;;49.63;;
10248;SDS011;5169;50.560;9.714;2023-04-29T06:14:00;89.27;;;48.73;;
10248;SDS011;5169;50.560;9.714;2023-04-29T06:16:26;93.20;;;51.30;;
10248;SDS011;5169;50.560;9.714;2023-04-29T06:18:52;85.60;;;50.00;;
10248;SDS011;5169;50.560;9.714;2023-04-29T06:21:17;85.70;;;49.33;;
10248;SDS011;5169;50.560;9.714;2023-04-29T06:23:46;69.53;;;44.03;;
10248;SDS011;5169;50.560;9.714;2023-04-29T06:26:11;75.57;;;46.10;;
10248;SDS011;5169;50.560;9.714;2023-04-29T06:28:37;78.67;;;47.40;;
10248;SDS011;5169;50.560;9.714;2023-04-29T06:31:03;68.87;;;45.00;;
10248;SDS011;5169;50.560;9.714;2023-04-29T06:33:30;69.30;;;45.87;;
10248;SDS011;5169;50.560;9.714;2023-04-29T06:36:00;63.70;;;45.53;;
10248;SDS011;5169;50.560;9.714;2023-04-29T06:38:25;65.13;;;45.50;;
10248;SDS011;5169;50.560;9.714;2023-04-29T06:40:53;64.60;;;45.70;;
10248;SDS011;5169;50.560;9.714;2023-04-29T06:43:19;70.03;;;47.70;;
10248;SDS011;5169;50.560;9.714;2023-04-29T06:45:45;67.77;;;46.80;;
10248;SDS011;5169;50.560;9.714;2023-04-29T06:48:11;58.63;;;42.57;;
10248;SDS011;5169;50.560;9.714;2023-04-29T06:50:36;54.80;;;41.17;;
10248;SDS011;5169;50.560;9.714;2023-04-29T06:53:02;47.83;;;38.00;;
10248;SDS011;5169;50.560;9.714;2023-04-29T06:55:27;50.20;;;39.37;;
10248;SDS011;5169;50.560;9.714;2023-04-29T06:57:53;57.47;;;43.57;;
10248;SDS011;5169;50.560;9.714;2023-04-29T07:00:19;46.83;;;39.23;;
10248;SDS011;5169;50.560;9.714;2023-04-29T07:02:46;48.73;;;40.20;;
10248;SDS011;5169;50.560;9.714;2023-04-29T07:05:14;52.10;;;43.90;;
10248;SDS011;5169;50.560;9.714;2023-04-29T07:07:39;51.67;;;42.63;;
10248;SDS011;5169;50.560;9.714;2023-04-29T07:10:05;45.13;;;40.27;;
10248;SDS011;5169;50.560;9.714;2023-04-29T07:12:31;46.77;;;41.73;;
10248;SDS011;5169;50.560;9.714;2023-04-29T07:14:56;47.07;;;42.00;;
10248;SDS011;5169;50.560;9.714;2023-04-29T07:17:28;43.83;;;39.17;;
10248;SDS011;5169;50.560;9.714;2023-04-29T07:19:55;43.97;;;39.47;;
10248;SDS011;5169;50.560;9.714;2023-04-29T07:22:20;35.83;;;32.40;;
10248;SDS011;5169;50.560;9.714;2023-04-29T07:24:52;37.93;;;34.20;;
10248;SDS011;5169;50.560;9.714;2023-04-29T07:27:23;45.10;;;40.40;;
10248;SDS011;5169;50.560;9.714;2023-04-29T07:29:49;44.27;;;39.73;;
10248;SDS011;5169;50.560;9.714;2023-04-29T07:32:14;40.97;;;36.97;;
10248;SDS011;5169;50.560;9.714;2023-04-29T07:34:45;38.77;;;35.13;;
10248;SDS011;5169;50.560;9.714;2023-04-29T07:37:16;43.67;;;39.17;;
10248;SDS011;5169;50.560;9.714;2023-04-29T07:39:42;43.00;;;38.47;;
10248;SDS011;5169;50.560;9.714;2023-04-29T07:42:08;39.70;;;35.70;;
10248;SDS011;5169;50.560;9.714;2023-04-29T07:44:33;40.70;;;36.50;;
10248;SDS011;5169;50.560;9.714;2023-04-29T07:47:00;40.10;;;36.10;;
10248;SDS011;5169;50.560;9.714;2023-04-29T07:49:30;38.13;;;34.23;;
10248;SDS011;5169;50.560;9.714;2023-04-29T07:51:56;40.57;;;36.53;;
10248;SDS011;5169;50.560;9.714;2023-04-29T07:54:22;37.17;;;33.40;;
10248;SDS011;5169;50.560;9.714;2023-04-29T07:56:47;35.13;;;31.70;;
10248;SDS011;5169;50.560;9.714;2023-04-29T07:59:13;38.43;;;34.57;;
10248;SDS011;5169;50.560;9.714;2023-04-29T08:01:41;34.20;;;30.90;;
10248;SDS011;5169;50.560;9.714;2023-04-29T08:04:09;35.43;;;32.10;;
10248;SDS011;5169;50.560;9.714;2023-04-29T08:06:35;38.73;;;34.97;;
10248;SDS011;5169;50.560;9.714;2023-04-29T08:09:00;35.57;;;32.30;;
10248;SDS011;5169;50.560;9.714;2023-04-29T08:11:26;37.83;;;34.10;;
10248;SDS011;5169;50.560;9.714;2023-04-29T08:13:52;38.80;;;35.03;;
10248;SDS011;5169;50.560;9.714;2023-04-29T08:16:18;37.30;;;33.73;;
10248;SDS011;5169;50.560;9.714;2023-04-29T08:18:45;32.80;;;29.73;;
10248;SDS011;5169;50.560;9.714;2023-04-29T08:21:11;35.90;;;32.43;;
10248;SDS011;5169;50.560;9.714;2023-04-29T08:23:37;35.07;;;31.83;;
10248;SDS011;5169;50.560;9.714;2023-04-29T08:26:03;34.87;;;31.63;;
10248;SDS011;5169;50.560;9.714;2023-04-29T08:28:29;35.90;;;32.50;;
10248;SDS011;5169;50.560;9.714;2023-04-29T08:30:54;36.23;;;32.80;;
10248;SDS011;5169;50.560;9.714;2023-04-29T08:33:20;35.57;;;32.40;;
10248;SDS011;5169;50.560;9.714;2023-04-29T08:35:56;37.27;;;33.60;;
10248;SDS011;5169;50.560;9.714;2023-04-29T08:38:25;34.00;;;30.90;;
10248;SDS011;5169;50.560;9.714;2023-04-29T08:40:52;32.13;;;29.30;;
10248;SDS011;5169;50.560;9.714;2023-04-29T08:43:17;37.47;;;33.93;;
10248;SDS011;5169;50.560;9.714;2023-04-29T08:45:44;33.50;;;30.00;;
10248;SDS011;5169;50.560;9.714;2023-04-29T08:48:15;35.00;;;31.83;;
10248;SDS011;5169;50.560;9.714;2023-04-29T08:50:41;36.33;;;33.03;;
10248;SDS011;5169;50.560;9.714;2023-04-29T08:53:08;34.87;;;31.77;;
10248;SDS011;5169;50.560;9.714;2023-04-29T08:55:41;35.73;;;32.37;;
10248;SDS011;5169;50.560;9.714;2023-04-29T08:58:09;37.23;;;33.70;;
10248;SDS011;5169;50.560;9.714;2023-04-29T09:00:36;38.03;;;34.37;;
10248;SDS011;5169;50.560;9.714;2023-04-29T09:03:11;40.50;;;36.50;;
10248;SDS011;5169;50.560;9.714;2023-04-29T09:05:42;36.47;;;33.33;;
10248;SDS011;5169;50.560;9.714;2023-04-29T09:08:10;39.93;;;36.13;;
10248;SDS011;5169;50.560;9.714;2023-04-29T09:10:40;37.23;;;33.93;;
10248;SDS011;5169;50.560;9.714;2023-04-29T09:13:06;37.73;;;34.33;;
10248;SDS011;5169;50.560;9.714;2023-04-29T09:15:37;40.93;;;36.67;;
10248;SDS011;5169;50.560;9.714;2023-04-29T09:18:06;35.03;;;31.90;;
10248;SDS011;5169;50.560;9.714;2023-04-29T09:20:35;39.67;;;35.87;;
10248;SDS011;5169;50.560;9.714;2023-04-29T09:23:01;39.17;;;35.37;;
10248;SDS011;5169;50.560;9.714;2023-04-29T09:25:30;35.80;;;32.40;;
10248;SDS011;5169;50.560;9.714;2023-04-29T09:28:01;30.53;;;27.97;;
10248;SDS011;5169;50.560;9.714;2023-04-29T09:30:45;37.30;;;33.93;;
10248;SDS011;5169;50.560;9.714;2023-04-29T09:33:11;40.90;;;36.80;;
10248;SDS011;5169;50.560;9.714;2023-04-29T09:35:40;35.93;;;32.53;;
10248;SDS011;5169;50.560;9.714;2023-04-29T09:38:10;36.60;;;33.20;;
10248;SDS011;5169;50.560;9.714;2023-04-29T09:40:42;33.47;;;30.23;;
10248;SDS011;5169;50.560;9.714;2023-04-29T09:43:12;41.20;;;36.90;;
10248;SDS011;5169;50.560;9.714;2023-04-29T09:45:40;32.57;;;29.60;;
10248;SDS011;5169;50.560;9.714;2023-04-29T09:48:08;39.10;;;35.17;;
10248;SDS011;5169;50.560;9.714;2023-04-29T09:50:35;38.33;;;34.57;;
10248;SDS011;5169;50.560;9.714;2023-04-29T09:53:07;30.73;;;28.13;;
10248;SDS011;5169;50.560;9.714;2023-04-29T09:56:20;39.83;;;35.70;;
10248;SDS011;5169;50.560;9.714;2023-04-29T09:58:33;38.97;;;35.07;;
10248;SDS011;5169;50.560;9.714;2023-04-29T10:01:02;38.37;;;34.37;;
10248;SDS011;5169;50.560;9.714;2023-04-29T10:03:32;39.87;;;35.87;;
10248;SDS011;5169;50.560;9.714;2023-04-29T10:05:59;39.70;;;35.80;;
10248;SDS011;5169;50.560;9.714;2023-04-29T10:08:26;40.30;;;36.30;;
10248;SDS011;5169;50.560;9.714;2023-04-29T10:10:59;38.03;;;34.40;;
10248;SDS011;5169;50.560;9.714;2023-04-29T10:13:26;39.77;;;36.00;;
10248;SDS011;5169;50.560;9.714;2023-04-29T10:18:34;34.13;;;31.10;;
10248;SDS011;5169;50.560;9.714;2023-04-29T10:21:05;35.87;;;32.60;;
10248;SDS011;5169;50.560;9.714;2023-04-29T10:23:34;40.27;;;36.27;;
10248;SDS011;5169;50.560;9.714;2023-04-29T10:26:01;43.07;;;38.70;;
10248;SDS011;5169;50.560;9.714;2023-04-29T10:28:29;38.23;;;34.63;;
10248;SDS011;5169;50.560;9.714;2023-04-29T10:30:57;42.27;;;38.17;;
10248;SDS011;5169;50.560;9.714;2023-04-29T10:33:31;39.23;;;35.60;;
10248;SDS011;5169;50.560;9.714;2023-04-29T10:36:02;39.10;;;35.53;;
10248;SDS011;5169;50.560;9.714;2023-04-29T10:38:30;40.03;;;36.43;;
10248;SDS011;5169;50.560;9.714;2023-04-29T10:41:13;44.47;;;39.87;;
10248;SDS011;5169;50.560;9.714;2023-04-29T10:43:45;43.40;;;39.17;;
10248;SDS011;5169;50.560;9.714;2023-04-29T10:46:21;46.67;;;41.87;;
10248;SDS011;5169;50.560;9.714;2023-04-29T10:48:48;41.97;;;38.13;;
10248;SDS011;5169;50.560;9.714;2023-04-29T10:51:32;34.37;;;31.67;;
10248;SDS011;5169;50.560;9.714;2023-04-29T10:56:35;36.43;;;33.50;;
10248;SDS011;5169;50.560;9.714;2023-04-29T10:59:04;37.83;;;34.83;;
10248;SDS011;5169;50.560;9.714;2023-04-29T11:01:40;33.13;;;30.63;;
10248;SDS011;5169;50.560;9.714;2023-04-29T11:04:16;44.03;;;40.37;;
10248;SDS011;5169;50.560;9.714;2023-04-29T11:06:44;36.17;;;33.43;;
10248;SDS011;5169;50.560;9.714;2023-04-29T11:17:03;42.67;;;38.87;;
10248;SDS011;5169;50.560;9.714;2023-04-29T11:19:33;39.20;;;36.10;;
10248;SDS011;5169;50.560;9.714;2023-04-29T11:24:58;38.83;;;35.80;;
10248;SDS011;5169;50.560;9.714;2023-04-29T11:27:29;38.83;;;35.90;;
10248;SDS011;5169;50.560;9.714;2023-04-29T11:29:56;43.37;;;39.77;;
10248;SDS011;5169;50.560;9.714;2023-04-29T11:32:29;44.23;;;40.33;;
10248;SDS011;5169;50.560;9.714;2023-04-29T11:35:09;37.23;;;34.43;;
10248;SDS011;5169;50.560;9.714;2023-04-29T11:37:46;30.63;;;28.50;;
10248;SDS011;5169;50.560;9.714;2023-04-29T11:40:12;35.23;;;32.63;;
10248;SDS011;5169;50.560;9.714;2023-04-29T11:42:44;37.67;;;34.70;;
10248;SDS011;5169;50.560;9.714;2023-04-29T11:45:16;43.53;;;39.83;;
10248;SDS011;5169;50.560;9.714;2023-04-29T11:47:43;39.80;;;36.50;;
10248;SDS011;5169;50.560;9.714;2023-04-29T11:50:10;42.03;;;38.43;;
10248;SDS011;5169;50.560;9.714;2023-04-29T11:52:39;40.97;;;37.63;;
10248;SDS011;5169;50.560;9.714;2023-04-29T11:55:08;41.90;;;38.30;;
10248;SDS011;5169;50.560;9.714;2023-04-29T11:57:40;42.70;;;38.93;;
10248;SDS011;5169;50.560;9.714;2023-04-29T12:00:10;37.33;;;34.23;;
10248;SDS011;5169;50.560;9.714;2023-04-29T12:02:44;42.80;;;38.90;;
10248;SDS011;5169;50.560;9.714;2023-04-29T12:05:10;44.60;;;40.30;;
10248;SDS011;5169;50.560;9.714;2023-04-29T12:07:41;40.27;;;36.67;;
10248;SDS011;5169;50.560;9.714;2023-04-29T12:10:07;38.33;;;35.17;;
10248;SDS011;5169;50.560;9.714;2023-04-29T12:12:37;43.17;;;39.33;;
10248;SDS011;5169;50.560;9.714;2023-04-29T12:15:08;38.60;;;35.20;;
10248;SDS011;5169;50.560;9.714;2023-04-29T12:17:37;40.87;;;37.20;;
10248;SDS011;5169;50.560;9.714;2023-04-29T12:20:17;35.20;;;32.30;;
10248;SDS011;5169;50.560;9.714;2023-04-29T12:22:45;35.37;;;32.50;;
10248;SDS011;5169;50.560;9.714;2023-04-29T12:25:14;36.07;;;33.20;;
10248;SDS011;5169;50.560;9.714;2023-04-29T12:27:48;39.97;;;36.47;;
10248;SDS011;5169;50.560;9.714;2023-04-29T12:30:22;36.13;;;33.23;;
10248;SDS011;5169;50.560;9.714;2023-04-29T12:32:50;40.10;;;36.60;;
10248;SDS011;5169;50.560;9.714;2023-04-29T12:35:19;39.90;;;36.33;;
10248;SDS011;5169;50.560;9.714;2023-04-29T12:37:49;35.13;;;32.20;;
10248;SDS011;5169;50.560;9.714;2023-04-29T12:40:22;34.13;;;31.33;;
10248;SDS011;5169;50.560;9.714;2023-04-29T12:43:05;38.60;;;35.30;;
10248;SDS011;5169;50.560;9.714;2023-04-29T12:45:34;36.23;;;33.10;;
10248;SDS011;5169;50.560;9.714;2023-04-29T12:48:00;38.40;;;35.17;;
10248;SDS011;5169;50.560;9.714;2023-04-29T12:53:04;39.60;;;36.20;;
10248;SDS011;5169;50.560;9.714;2023-04-29T12:55:34;32.90;;;30.33;;
10248;SDS011;5169;50.560;9.714;2023-04-29T12:58:02;36.80;;;33.83;;
10248;SDS011;5169;50.560;9.714;2023-04-29T13:00:36;34.77;;;32.10;;
10248;SDS011;5169;50.560;9.714;2023-04-29T13:03:02;32.63;;;30.10;;
10248;SDS011;5169;50.560;9.714;2023-04-29T13:05:28;43.37;;;39.47;;
10248;SDS011;5169;50.560;9.714;2023-04-29T13:07:53;40.80;;;37.43;;
10248;SDS011;5169;50.560;9.714;2023-04-29T13:10:29;38.60;;;35.53;;
10248;SDS011;5169;50.560;9.714;2023-04-29T13:12:55;39.60;;;36.03;;
10248;SDS011;5169;50.560;9.714;2023-04-29T13:15:29;43.57;;;39.70;;
10248;SDS011;5169;50.560;9.714;2023-04-29T13:17:59;41.00;;;37.17;;
10248;SDS011;5169;50.560;9.714;2023-04-29T13:20:27;34.03;;;31.20;;
10248;SDS011;5169;50.560;9.714;2023-04-29T13:22:53;40.17;;;36.53;;
10248;SDS011;5169;50.560;9.714;2023-04-29T13:25:23;37.80;;;34.43;;
10248;SDS011;5169;50.560;9.714;2023-04-29T13:27:51;40.93;;;37.07;;
10248;SDS011;5169;50.560;9.714;2023-04-29T13:30:17;36.43;;;33.10;;
10248;SDS011;5169;50.560;9.714;2023-04-29T13:32:43;37.57;;;34.20;;
10248;SDS011;5169;50.560;9.714;2023-04-29T13:35:11;39.23;;;35.47;;
10248;SDS011;5169;50.560;9.714;2023-04-29T13:37:39;38.47;;;34.93;;
10248;SDS011;5169;50.560;9.714;2023-04-29T13:40:05;38.70;;;35.23;;
10248;SDS011;5169;50.560;9.714;2023-04-29T13:42:38;39.37;;;35.67;;
10248;SDS011;5169;50.560;9.714;2023-04-29T13:45:04;41.50;;;37.43;;
10248;SDS011;5169;50.560;9.714;2023-04-29T13:47:35;38.63;;;34.97;;
10248;SDS011;5169;50.560;9.714;2023-04-29T13:50:03;38.63;;;34.77;;
10248;SDS011;5169;50.560;9.714;2023-04-29T13:52:29;39.77;;;36.03;;
10248;SDS011;5169;50.560;9.714;2023-04-29T13:54:55;41.53;;;37.43;;
10248;SDS011;5169;50.560;9.714;2023-04-29T13:57:24;40.80;;;36.70;;
10248;SDS011;5169;50.560;9.714;2023-04-29T13:59:51;42.47;;;38.20;;
10248;SDS011;5169;50.560;9.714;2023-04-29T14:02:19;43.77;;;39.07;;
10248;SDS011;5169;50.560;9.714;2023-04-29T14:04:51;45.00;;;40.17;;
10248;SDS011;5169;50.560;9.714;2023-04-29T14:07:16;43.03;;;38.40;;
10248;SDS011;5169;50.560;9.714;2023-04-29T14:09:47;39.70;;;35.80;;
10248;SDS011;5169;50.560;9.714;2023-04-29T14:12:16;40.10;;;36.20;;
10248;SDS011;5169;50.560;9.714;2023-04-29T14:14:41;41.07;;;36.93;;
10248;SDS011;5169;50.560;9.714;2023-04-29T14:17:11;40.50;;;36.43;;
10248;SDS011;5169;50.560;9.714;2023-04-29T14:19:37;41.50;;;37.80;;
10248;SDS011;5169;50.560;9.714;2023-04-29T14:22:02;44.00;;;39.80;;
10248;SDS011;5169;50.560;9.714;2023-04-29T14:24:28;42.03;;;38.10;;
10248;SDS011;5169;50.560;9.714;2023-04-29T14:26:53;44.33;;;39.93;;
10248;SDS011;5169;50.560;9.714;2023-04-29T14:29:19;42.90;;;38.80;;
10248;SDS011;5169;50.560;9.714;2023-04-29T14:31:51;43.13;;;38.80;;
10248;SDS011;5169;50.560;9.714;2023-04-29T14:34:16;43.97;;;39.70;;
10248;SDS011;5169;50.560;9.714;2023-04-29T14:36:50;42.50;;;38.57;;
10248;SDS011;5169;50.560;9.714;2023-04-29T14:39:16;41.87;;;38.10;;
10248;SDS011;5169;50.560;9.714;2023-04-29T14:41:42;42.17;;;38.23;;
10248;SDS011;5169;50.560;9.714;2023-04-29T14:44:14;47.40;;;42.70;;
10248;SDS011;5169;50.560;9.714;2023-04-29T14:46:39;39.37;;;35.87;;
10248;SDS011;5169;50.560;9.714;2023-04-29T14:49:05;39.70;;;36.27;;
10248;SDS011;5169;50.560;9.714;2023-04-29T14:51:31;40.37;;;36.77;;
10248;SDS011;5169;50.560;9.714;2023-04-29T14:54:00;43.07;;;39.07;;
10248;SDS011;5169;50.560;9.714;2023-04-29T14:56:25;40.00;;;36.37;;
10248;SDS011;5169;50.560;9.714;2023-04-29T14:58:51;42.23;;;38.30;;
10248;SDS011;5169;50.560;9.714;2023-04-29T15:01:19;37.40;;;34.03;;
10248;SDS011;5169;50.560;9.714;2023-04-29T15:03:52;40.27;;;36.63;;
10248;SDS011;5169;50.560;9.714;2023-04-29T15:06:20;36.00;;;33.03;;